Tupungato, Argentina
Current Conditions -  °F | °C
As of 2:00 PM on Thursday 27 Nov 2014 (Local Time) from SAME Reporting Station
Clear Clear  
Wind Chill: 32°   Ceiling: Unl
Heat Index: 32°   Visibility: 6mi
Dew Point:   Wind: 13mph
Humidity: 17%   Direction: 360°N
Pressure: 29.8"   Gusts: 26mph
Location:  33.37°S, 69.13°W
Report Text: SAME 271700Z 36011G23KT CAVOK 32/04 Q1009
Loading
Personal Weather Stations






























Interactive Weather Map New forecast layout! Learn more

10-Day Weather Forecast

Advertisements
Track Severe Weather on mobile